Weather History for Belmar-Farmingdale, NJ

Change the Weather History Date:

Saturday, May 18, 2013

  Actual Average Record
Temperature  
Mean Temperature 58 °F -  
Max Temperature 64 °F 65 °F 84 °F (1998)
Min Temperature 51 °F 49 °F 39 °F (2003)
Degree Days  
Heating Degree Days 8    
Growing Degree Days 8 (Base 50)    
Moisture  
Dew Point 52 °F    
Average Humidity 80    
Maximum Humidity 100    
Minimum Humidity 64    
Precipitation  
Precipitation 0.01 in - - ()
Sea Level Pressure  
Sea Level Pressure 30.29 in    
Wind  
Wind Speed 3 mph (SE)    
Max Wind Speed 12 mph    
Max Gust Speed -    
Visibility 10 miles    
Events      
Averages and records for this station are not official NWS values.
T = Trace of Precipitation, MM = Missing Value Source: NWS Daily Summary

Daily Weather History Graph

Daily Weather History Graph

Search for Another Location

Airport:

Trip Planner

Search our weather history database for the weather conditions in past years. The results will help you decide how hot, cold, wet, or windy it might be!

Date:

Astronomy

May. 18, 2013 Rise Set
Actual Time 5:37 AM EDT 8:08 PM EDT
Civil Twilight 5:06 AM EDT 8:39 PM EDT
Nautical Twilight 4:28 AM EDT 9:18 PM EDT
Astronomical Twilight 3:45 AM EDT 10:01 PM EDT
Moon 1:08 PM EDT (5/18) 1:29 AM EDT (5/18)
Length of Visible Light 15h 32m
Length of Day
14h 30m
First Quarter, 55% of the Moon is Illuminated
May 18
First Quarter
May 25
Full
May 31
Last Quarter
Jun 8
New
Jun 16
First Quarter

Hourly Weather History & Observations

Time (EDT) Temp. Dew Point Humidity Pressure Visibility Wind Dir Wind Speed Gust Speed Precip Events Conditions
12:35 AM 55.4 °F 46.4 °F 72% 30.22 in 10.0 mi Calm Calm - N/A   Clear
12:55 AM 55.4 °F 46.4 °F 72% 30.22 in 10.0 mi NE 4.6 mph - N/A   Clear
1:15 AM 55.4 °F 46.4 °F 72% 30.22 in 10.0 mi Calm Calm - N/A   Clear
1:35 AM 53.6 °F 46.4 °F 77% 30.22 in 10.0 mi Calm Calm - N/A   Clear
1:55 AM 53.6 °F 46.4 °F 77% 30.22 in 10.0 mi West 4.6 mph - N/A   Clear
2:15 AM 53.6 °F 46.4 °F 77% 30.21 in 10.0 mi West 3.5 mph - N/A   Clear
2:35 AM 51.8 °F 46.4 °F 82% 30.22 in 10.0 mi West 3.5 mph - N/A   Clear
2:55 AM 53.6 °F 48.2 °F 82% 30.21 in 10.0 mi Calm Calm - N/A   Mostly Cloudy
3:15 AM 53.6 °F 48.2 °F 82% 30.22 in 10.0 mi Calm Calm - N/A   Overcast
3:35 AM 53.6 °F 48.2 °F 82% 30.23 in 10.0 mi Calm Calm - N/A   Overcast
3:55 AM 55.4 °F 48.2 °F 77% 30.23 in 10.0 mi Calm Calm - N/A   Overcast
4:15 AM 55.4 °F 48.2 °F 77% 30.24 in 10.0 mi Calm Calm - N/A   Overcast
4:35 AM 53.6 °F 48.2 °F 82% 30.24 in 10.0 mi Calm Calm - N/A   Overcast
4:55 AM 53.6 °F 48.2 °F 82% 30.24 in 10.0 mi Calm Calm - N/A   Overcast
5:15 AM 55.4 °F 48.2 °F 77% 30.25 in 10.0 mi Calm Calm - N/A   Overcast
5:35 AM 55.4 °F 48.2 °F 77% 30.26 in 10.0 mi Calm Calm - N/A   Overcast
5:55 AM 55.4 °F 48.2 °F 77% 30.26 in 10.0 mi Calm Calm - N/A   Overcast
6:15 AM 55.4 °F 50.0 °F 82% 30.27 in 10.0 mi Calm Calm - N/A   Overcast
6:35 AM 55.4 °F 48.2 °F 77% 30.28 in 10.0 mi Calm Calm - N/A   Overcast
6:55 AM 55.4 °F 50.0 °F 82% 30.28 in 10.0 mi Calm Calm - N/A   Overcast
7:15 AM 57.2 °F 50.0 °F 77% 30.28 in 10.0 mi Calm Calm - N/A   Overcast
7:35 AM 55.4 °F 48.2 °F 77% 30.29 in 10.0 mi Calm Calm - N/A   Overcast
7:55 AM 57.2 °F 48.2 °F 72% 30.29 in 10.0 mi Calm Calm - N/A   Overcast
8:15 AM 57.2 °F 48.2 °F 72% 30.30 in 10.0 mi Calm Calm - N/A   Overcast
8:35 AM 57.2 °F 50.0 °F 77% 30.30 in 10.0 mi Calm Calm - N/A   Overcast
8:55 AM 59.0 °F 51.8 °F 77% 30.31 in 10.0 mi ENE 4.6 mph - N/A   Overcast
9:15 AM 59.0 °F 51.8 °F 77% 30.31 in 10.0 mi East 5.8 mph - N/A   Overcast
9:35 AM 60.8 °F 51.8 °F 72% 30.31 in 10.0 mi East 4.6 mph - N/A   Mostly Cloudy
9:55 AM 59.0 °F 51.8 °F 77% 30.32 in 10.0 mi East 5.8 mph - N/A   Overcast
10:15 AM 59.0 °F 51.8 °F 77% 30.32 in 10.0 mi East 6.9 mph - N/A   Overcast
10:35 AM 59.0 °F 51.8 °F 77% 30.32 in 10.0 mi East 6.9 mph - N/A   Mostly Cloudy
10:55 AM 60.8 °F 51.8 °F 72% 30.33 in 10.0 mi East 4.6 mph - N/A   Mostly Cloudy
11:15 AM 60.8 °F 51.8 °F 72% 30.32 in 10.0 mi East 4.6 mph - N/A   Mostly Cloudy
11:35 AM 62.6 °F 53.6 °F 72% 30.32 in 10.0 mi ESE 8.1 mph - N/A   Scattered Clouds
11:55 AM 62.6 °F 51.8 °F 68% 30.31 in 10.0 mi SSE 6.9 mph - N/A   Mostly Cloudy
12:15 PM 62.6 °F 51.8 °F 68% 30.30 in 10.0 mi South 5.8 mph - N/A   Mostly Cloudy
12:35 PM 62.6 °F 51.8 °F 68% 30.31 in 10.0 mi SSE 11.5 mph - N/A   Overcast
12:55 PM 62.6 °F 51.8 °F 68% 30.30 in 10.0 mi SSE 10.4 mph - N/A   Mostly Cloudy
1:15 PM 64.4 °F 51.8 °F 64% 30.30 in 10.0 mi SSE 9.2 mph - N/A   Mostly Cloudy
1:35 PM 64.4 °F 51.8 °F 64% 30.30 in 10.0 mi SSE 10.4 mph - N/A   Mostly Cloudy
1:55 PM 62.6 °F 53.6 °F 72% 30.30 in 10.0 mi South 6.9 mph - N/A   Overcast
2:15 PM 62.6 °F 53.6 °F 72% 30.30 in 10.0 mi SSE 5.8 mph - N/A   Overcast
2:35 PM 60.8 °F 55.4 °F 82% 30.30 in 10.0 mi SSE 5.8 mph - N/A   Overcast
3:15 PM 60.8 °F 55.4 °F 82% 30.30 in 10.0 mi ESE 6.9 mph - N/A   Overcast
3:35 PM 60.8 °F 55.4 °F 82% 30.30 in 10.0 mi ESE 6.9 mph - N/A   Overcast
3:55 PM 60.8 °F 55.4 °F 82% 30.31 in 10.0 mi East 6.9 mph - N/A   Overcast
4:15 PM 60.8 °F 55.4 °F 82% 30.31 in 10.0 mi East 6.9 mph - N/A   Overcast
4:35 PM 59.0 °F 55.4 °F 88% 30.31 in 10.0 mi East 8.1 mph - N/A   Overcast
4:55 PM 57.2 °F 55.4 °F 94% 30.31 in 10.0 mi East 6.9 mph - N/A   Overcast
5:15 PM 57.2 °F 55.4 °F 94% 30.31 in 10.0 mi East 9.2 mph - N/A   Overcast
5:35 PM 57.2 °F 53.6 °F 88% 30.31 in 10.0 mi East 8.1 mph - N/A   Overcast
5:55 PM 57.2 °F 53.6 °F 88% 30.31 in 10.0 mi ESE 5.8 mph - N/A   Overcast
6:15 PM 57.2 °F 53.6 °F 88% 30.30 in 10.0 mi ESE 5.8 mph - N/A   Overcast
6:35 PM 57.2 °F 53.6 °F 88% 30.30 in 10.0 mi ESE 6.9 mph - N/A   Overcast
6:55 PM 57.2 °F 53.6 °F 88% 30.30 in 10.0 mi ESE 5.8 mph - N/A   Overcast
7:15 PM 57.2 °F 55.4 °F 94% 30.31 in 10.0 mi East 3.5 mph - N/A   Overcast
7:35 PM 57.2 °F 53.6 °F 88% 30.31 in 10.0 mi SE 5.8 mph - 0.01 in   Overcast
7:55 PM 57.2 °F 55.4 °F 94% 30.30 in 10.0 mi SSE 8.1 mph - 0.01 in   Overcast
8:15 PM 57.2 °F 53.6 °F 88% 30.30 in 10.0 mi SSE 6.9 mph - N/A   Overcast
8:35 PM 57.2 °F 53.6 °F 88% 30.30 in 10.0 mi SSE 9.2 mph - N/A   Overcast
8:55 PM 57.2 °F 53.6 °F 88% 30.30 in 10.0 mi SSE 6.9 mph - N/A   Overcast
9:15 PM 57.2 °F 53.6 °F 88% 30.31 in 10.0 mi SSE 8.1 mph - N/A   Overcast
9:35 PM 57.2 °F 53.6 °F 88% 30.31 in 10.0 mi South 5.8 mph - N/A   Overcast
9:55 PM 57.2 °F 53.6 °F 88% 30.31 in 10.0 mi SE 4.6 mph - N/A   Overcast
10:15 PM 57.2 °F 53.6 °F 88% 30.31 in 10.0 mi SSE 5.8 mph - N/A   Overcast
10:35 PM 57.2 °F 51.8 °F 82% 30.30 in 10.0 mi SE 5.8 mph - N/A   Overcast
10:55 PM 57.2 °F 53.6 °F 88% 30.30 in 10.0 mi SSE 5.8 mph - N/A   Overcast
11:15 PM 57.2 °F 53.6 °F 88% 30.30 in 10.0 mi South 6.9 mph - N/A   Overcast
11:35 PM 57.2 °F 55.4 °F 94% 30.30 in 6.0 mi SSE 8.1 mph - N/A   Overcast
11:55 PM 55.4 °F 55.4 °F 100% 30.30 in 10.0 mi SSE 6.9 mph - N/A   Overcast